Time;durP1;ratioP1;P1;durP2;ratioP2;P2;SDS_P1;SDS_P2;PMS_P1;PMS_P2;Temp;Humidity;BMP_temperature;BMP_pressure;BME280_temperature;BME280_humidity;BME280_pressure;Samples;Min_cycle;Max_cycle;Signal;HPM_P1;HPM_P2
2024/03/01 00:01:50;;;;;;;0.80;0.80;;;4.20;99.90;;;;;;5113766;28;20219;-71
2024/03/01 00:04:22;;;;;;;0.98;0.90;;;4.10;99.90;;;;;;5113196;28;20183;-72
2024/03/01 00:06:48;;;;;;;1.55;1.10;;;4.10;99.90;;;;;;5094882;28;20220;-72
2024/03/01 00:09:24;;;;;;;0.60;0.60;;;4.10;99.90;;;;;;5106623;28;20196;-72
2024/03/01 00:11:50;;;;;;;0.68;0.68;;;4.10;99.90;;;;;;5074724;28;20286;-71
2024/03/01 00:14:16;;;;;;;0.82;0.82;;;4.10;99.90;;;;;;5092801;28;20271;-71
2024/03/01 00:16:44;;;;;;;0.80;0.80;;;4.10;99.90;;;;;;5074412;28;20202;-71
2024/03/01 00:19:16;;;;;;;0.88;0.85;;;4.10;99.90;;;;;;5073657;28;20208;-71
2024/03/01 00:21:41;;;;;;;0.73;0.73;;;4.10;99.90;;;;;;5092477;28;20598;-71
2024/03/01 00:24:10;;;;;;;1.48;0.75;;;4.10;99.90;;;;;;5092473;28;20254;-71
2024/03/01 00:26:43;;;;;;;9.40;4.10;;;4.00;99.90;;;;;;5092415;28;20188;-72
2024/03/01 00:29:12;;;;;;;0.60;0.60;;;4.00;99.90;;;;;;5112786;28;20563;-71
2024/03/01 00:31:46;;;;;;;1.95;1.55;;;4.00;99.90;;;;;;5112688;28;20218;-71
2024/03/01 00:34:12;;;;;;;0.70;0.70;;;4.00;99.90;;;;;;5112921;28;20205;-71
2024/03/01 00:36:52;;;;;;;0.95;0.95;;;4.00;99.90;;;;;;5112745;28;20196;-71
2024/03/01 00:39:17;;;;;;;2.80;1.80;;;4.00;99.90;;;;;;5094285;28;20214;-71
2024/03/01 00:41:43;;;;;;;0.70;0.70;;;4.00;99.90;;;;;;5095316;28;20191;-72
2024/03/01 00:44:09;;;;;;;0.88;0.88;;;4.00;99.90;;;;;;5116928;28;20191;-72
2024/03/01 00:46:36;;;;;;;0.60;0.60;;;3.90;99.90;;;;;;5116842;28;20187;-71
2024/03/01 00:49:02;;;;;;;1.15;1.05;;;3.90;99.90;;;;;;5098597;28;20191;-71
2024/03/01 00:51:28;;;;;;;1.30;1.23;;;3.90;99.90;;;;;;5116746;28;20198;-71
2024/03/01 00:53:53;;;;;;;0.50;0.50;;;3.90;99.90;;;;;;5116908;28;20708;-71
2024/03/01 00:56:19;;;;;;;1.17;1.10;;;3.90;99.90;;;;;;5116590;28;20223;-71
2024/03/01 00:58:45;;;;;;;0.80;0.80;;;3.90;99.90;;;;;;5116639;28;20211;-71
2024/03/01 01:01:12;;;;;;;0.73;0.73;;;3.80;99.90;;;;;;5116690;28;20183;-71
2024/03/01 01:03:38;;;;;;;0.70;0.70;;;3.90;99.90;;;;;;5098154;28;21667;-71
2024/03/01 01:06:04;;;;;;;0.70;0.70;;;3.80;99.90;;;;;;5105124;28;20192;-73
2024/03/01 01:08:30;;;;;;;0.70;0.70;;;3.80;99.90;;;;;;5111753;28;20195;-73
2024/03/01 01:10:55;;;;;;;1.65;1.15;;;3.80;99.90;;;;;;5096127;28;20272;-74
2024/03/01 01:13:21;;;;;;;0.80;0.80;;;3.80;99.90;;;;;;5095914;28;20659;-74
2024/03/01 01:15:47;;;;;;;0.82;0.82;;;3.70;99.90;;;;;;5096039;28;20193;-74
2024/03/01 01:18:16;;;;;;;0.88;0.88;;;3.70;99.90;;;;;;5096245;28;20204;-74
2024/03/01 01:20:41;;;;;;;1.35;1.25;;;3.70;99.90;;;;;;5096000;28;20199;-74
2024/03/01 01:23:07;;;;;;;1.02;1.02;;;3.70;99.90;;;;;;5096787;27;20660;-74
2024/03/01 01:25:33;;;;;;;0.80;0.80;;;3.70;99.90;;;;;;5115985;28;20216;-74
2024/03/01 01:27:59;;;;;;;0.73;0.73;;;3.60;99.90;;;;;;5097916;28;20305;-74
2024/03/01 01:30:25;;;;;;;0.50;0.50;;;3.60;99.90;;;;;;5115958;28;20240;-74
2024/03/01 01:32:51;;;;;;;0.75;0.75;;;3.60;99.90;;;;;;5097842;28;20668;-74
2024/03/01 01:35:17;;;;;;;0.73;0.73;;;3.60;99.90;;;;;;5116116;28;20195;-74
2024/03/01 01:37:43;;;;;;;1.23;1.17;;;3.60;99.90;;;;;;5115828;28;20203;-74
2024/03/01 01:40:11;;;;;;;1.05;0.95;;;3.60;99.90;;;;;;5097664;28;20219;-74
2024/03/01 01:42:38;;;;;;;1.02;1.02;;;3.60;99.90;;;;;;5115740;28;20654;-73
2024/03/01 01:45:04;;;;;;;0.60;0.60;;;3.60;99.90;;;;;;5131656;27;20192;-75
2024/03/01 01:47:30;;;;;;;0.70;0.70;;;3.60;99.90;;;;;;5115768;28;20196;-74
2024/03/01 01:49:56;;;;;;;0.60;0.60;;;3.60;99.90;;;;;;5115807;28;20670;-74
2024/03/01 01:52:22;;;;;;;1.35;1.25;;;3.60;99.90;;;;;;5097303;28;20192;-74
2024/03/01 01:54:48;;;;;;;0.60;0.60;;;3.50;99.90;;;;;;5114410;28;20191;-74
2024/03/01 01:57:14;;;;;;;1.13;0.90;;;3.50;99.90;;;;;;5097185;28;20695;-74
2024/03/01 01:59:44;;;;;;;1.20;1.13;;;3.50;99.90;;;;;;5115331;28;20204;-75
2024/03/01 02:02:09;;;;;;;3.95;1.38;;;3.50;99.90;;;;;;5106493;28;20275;-74
2024/03/01 02:04:35;;;;;;;0.75;0.75;;;3.60;99.90;;;;;;5094263;28;20279;-74
2024/03/01 02:07:04;;;;;;;0.80;0.80;;;3.50;99.90;;;;;;5076529;28;20283;-74
2024/03/01 02:09:30;;;;;;;0.90;0.90;;;3.50;99.90;;;;;;5076297;28;20208;-74
2024/03/01 02:11:55;;;;;;;1.02;1.02;;;3.50;99.90;;;;;;5076547;28;20230;-74
2024/03/01 02:14:21;;;;;;;0.70;0.70;;;3.50;99.90;;;;;;5094790;28;20188;-74
2024/03/01 02:16:47;;;;;;;0.70;0.70;;;3.50;99.90;;;;;;5076423;28;20682;-70
2024/03/01 02:19:17;;;;;;;0.70;0.70;;;3.50;99.90;;;;;;5110209;28;20354;-69
2024/03/01 02:21:52;;;;;;;0.90;0.90;;;3.40;99.90;;;;;;5110465;28;20209;-69
2024/03/01 02:24:18;;;;;;;0.75;0.75;;;3.50;99.90;;;;;;5094651;28;20244;-71
2024/03/01 02:26:44;;;;;;;1.42;1.33;;;3.50;99.90;;;;;;5094678;28;20271;-69
2024/03/01 02:29:10;;;;;;;0.70;0.70;;;3.40;99.90;;;;;;5094617;28;20192;-69
2024/03/01 02:31:36;;;;;;;0.80;0.80;;;3.40;99.90;;;;;;5094244;28;20188;-69
2024/03/01 02:34:01;;;;;;;0.90;0.90;;;3.40;99.90;;;;;;5094525;28;20203;-69
2024/03/01 02:36:27;;;;;;;1.33;1.23;;;3.50;99.90;;;;;;5076487;28;20279;-70
2024/03/01 02:38:53;;;;;;;1.25;1.15;;;3.40;99.90;;;;;;5094443;28;20211;-69
2024/03/01 02:41:19;;;;;;;0.70;0.70;;;3.40;99.90;;;;;;5094357;28;20528;-70
2024/03/01 02:43:44;;;;;;;0.80;0.77;;;3.40;99.90;;;;;;5076056;28;20287;-70
2024/03/01 02:46:10;;;;;;;0.50;0.50;;;3.40;99.90;;;;;;5094254;28;20192;-69
2024/03/01 02:48:35;;;;;;;1.35;1.25;;;3.40;99.90;;;;;;5094120;28;20198;-69
2024/03/01 02:51:01;;;;;;;1.50;1.40;;;3.40;99.90;;;;;;5094196;28;20192;-69
2024/03/01 02:53:27;;;;;;;0.70;0.70;;;3.40;99.90;;;;;;5093969;28;20567;-69
2024/03/01 02:55:53;;;;;;;0.80;0.80;;;3.40;99.90;;;;;;5094199;28;20189;-70
2024/03/01 02:58:18;;;;;;;0.68;0.68;;;3.40;99.90;;;;;;5093389;28;20223;-70
2024/03/01 03:00:44;;;;;;;0.70;0.70;;;3.30;99.90;;;;;;5093983;28;20184;-69
2024/03/01 03:03:10;;;;;;;0.70;0.70;;;3.30;99.90;;;;;;5093908;28;20184;-69
2024/03/01 03:05:35;;;;;;;0.60;0.60;;;3.30;99.90;;;;;;5093351;28;20195;-70
2024/03/01 03:08:05;;;;;;;1.75;1.15;;;3.30;99.90;;;;;;5093898;28;20200;-69
2024/03/01 03:10:31;;;;;;;0.52;0.52;;;3.30;99.90;;;;;;5093619;28;20257;-70
2024/03/01 03:12:56;;;;;;;0.60;0.60;;;3.30;99.90;;;;;;5093826;28;20196;-69
2024/03/01 03:15:22;;;;;;;0.95;0.95;;;3.30;99.90;;;;;;5093611;28;20566;-70
2024/03/01 03:17:48;;;;;;;1.95;1.38;;;3.30;99.90;;;;;;5094475;28;20207;-70
2024/03/01 03:20:17;;;;;;;1.30;1.20;;;3.30;99.90;;;;;;5095711;28;20202;-69
2024/03/01 03:22:47;;;;;;;0.80;0.80;;;3.30;99.90;;;;;;5113863;28;20614;-69
2024/03/01 03:25:36;;;;;;;0.60;0.60;;;3.20;99.90;;;;;;5114098;28;20210;-74
2024/03/01 03:28:02;;;;;;;1.13;0.90;;;3.30;99.90;;;;;;5114253;28;20184;-73
2024/03/01 03:30:54;;;;;;;0.85;0.85;;;3.20;99.90;;;;;;5113875;28;20199;-73
2024/03/01 03:33:19;;;;;;;0.90;0.90;;;3.20;99.90;;;;;;5114013;28;20229;-73
2024/03/01 03:35:45;;;;;;;0.93;0.93;;;3.30;99.90;;;;;;5113734;28;20199;-73
2024/03/01 03:38:11;;;;;;;0.60;0.60;;;3.20;99.90;;;;;;5113632;28;20207;-73
2024/03/01 03:40:36;;;;;;;1.27;1.17;;;3.20;99.90;;;;;;5113640;28;20659;-72
2024/03/01 03:43:03;;;;;;;0.60;0.60;;;3.20;99.90;;;;;;5113490;28;20192;-73
2024/03/01 03:45:28;;;;;;;0.82;0.82;;;3.20;99.90;;;;;;5113379;28;20184;-73
2024/03/01 03:47:54;;;;;;;0.70;0.70;;;3.10;99.90;;;;;;5113609;28;20206;-73
2024/03/01 03:50:21;;;;;;;0.80;0.80;;;3.10;99.90;;;;;;5113393;28;20275;-74
2024/03/01 03:53:34;;;;;;;0.70;0.70;;;3.10;99.90;;;;;;5113633;28;20615;-75
2024/03/01 03:56:00;;;;;;;1.00;1.00;;;3.10;99.90;;;;;;5030565;28;20274;-73
2024/03/01 03:58:25;;;;;;;0.80;0.80;;;3.00;99.90;;;;;;5030201;28;20226;-73
2024/03/01 04:00:51;;;;;;;1.48;1.35;;;3.00;99.90;;;;;;5070145;28;20203;-73
2024/03/01 04:03:16;;;;;;;0.70;0.70;;;3.00;99.90;;;;;;5112376;28;20236;-73
2024/03/01 04:05:42;;;;;;;0.70;0.70;;;3.00;99.90;;;;;;5128886;27;20199;-73
2024/03/01 04:08:08;;;;;;;0.75;0.75;;;2.90;99.90;;;;;;5113133;28;20195;-73
2024/03/01 04:10:33;;;;;;;2.30;1.08;;;2.90;99.90;;;;;;5113025;28;20191;-73
2024/03/01 04:13:00;;;;;;;0.65;0.65;;;2.90;99.90;;;;;;5094830;28;20218;-73
2024/03/01 04:15:26;;;;;;;0.73;0.73;;;2.90;99.90;;;;;;5094746;28;20203;-73
2024/03/01 04:17:52;;;;;;;0.63;0.63;;;2.80;99.90;;;;;;5112661;28;20594;-72
2024/03/01 04:20:18;;;;;;;0.85;0.85;;;2.80;99.90;;;;;;5112824;28;20285;-73
2024/03/01 04:22:44;;;;;;;1.55;1.17;;;2.80;99.90;;;;;;5113002;28;20223;-73
2024/03/01 04:25:10;;;;;;;0.70;0.70;;;2.70;99.90;;;;;;5112921;28;20191;-73
2024/03/01 04:27:38;;;;;;;0.60;0.60;;;2.70;99.90;;;;;;5112810;28;20187;-72
2024/03/01 04:30:08;;;;;;;3.00;1.23;;;2.70;99.90;;;;;;5112948;28;20248;-73
2024/03/01 04:32:34;;;;;;;0.70;0.70;;;2.60;99.90;;;;;;5112846;28;20188;-73
2024/03/01 04:34:59;;;;;;;0.70;0.70;;;2.60;99.90;;;;;;5113065;28;20275;-74
2024/03/01 04:37:25;;;;;;;0.63;0.63;;;2.60;99.90;;;;;;5112656;28;20530;-74
2024/03/01 04:39:51;;;;;;;1.35;1.25;;;2.60;99.90;;;;;;5112891;28;20192;-74
2024/03/01 04:42:17;;;;;;;11.30;2.15;;;2.50;99.90;;;;;;5112756;28;20267;-74
2024/03/01 04:44:43;;;;;;;0.77;0.77;;;2.50;99.90;;;;;;5112706;28;20194;-74
2024/03/01 04:47:10;;;;;;;3.70;1.95;;;2.50;99.90;;;;;;5112757;28;20196;-74
2024/03/01 04:49:36;;;;;;;0.70;0.70;;;2.40;99.90;;;;;;5094245;28;20199;-74
2024/03/01 04:52:02;;;;;;;0.68;0.68;;;2.40;99.90;;;;;;5094192;28;20202;-75
2024/03/01 04:54:27;;;;;;;0.88;0.88;;;2.40;99.90;;;;;;5112555;28;20244;-76
2024/03/01 04:56:53;;;;;;;0.90;0.90;;;2.40;99.90;;;;;;5112591;28;20223;-75
2024/03/01 04:59:19;;;;;;;0.95;0.95;;;2.40;99.90;;;;;;5112476;28;20235;-74
2024/03/01 05:01:45;;;;;;;0.85;0.85;;;2.40;99.90;;;;;;5112722;28;20199;-74
2024/03/01 05:04:10;;;;;;;4.80;3.15;;;2.30;99.90;;;;;;5112565;28;20187;-74
2024/03/01 05:06:37;;;;;;;0.70;0.70;;;2.30;99.90;;;;;;5112452;28;20210;-74
2024/03/01 05:09:03;;;;;;;1.92;1.83;;;2.30;99.90;;;;;;5112457;28;20191;-74
2024/03/01 05:11:33;;;;;;;0.70;0.70;;;2.20;99.90;;;;;;5112393;28;20199;-72
2024/03/01 05:14:00;;;;;;;0.60;0.60;;;2.20;99.90;;;;;;5094297;28;20192;-73
2024/03/01 05:16:26;;;;;;;0.60;0.60;;;2.20;99.90;;;;;;5112309;28;20627;-73
2024/03/01 05:18:51;;;;;;;0.70;0.70;;;2.10;99.90;;;;;;5128213;28;20247;-73
2024/03/01 05:21:17;;;;;;;0.82;0.82;;;2.10;99.90;;;;;;5112472;28;20275;-73
2024/03/01 05:23:43;;;;;;;0.80;0.80;;;2.00;99.90;;;;;;5112358;28;20271;-72
2024/03/01 05:26:09;;;;;;;0.70;0.70;;;2.00;99.90;;;;;;5094215;28;20623;-73
2024/03/01 05:28:35;;;;;;;0.75;0.75;;;2.00;99.90;;;;;;5114292;28;20191;-73
2024/03/01 05:31:04;;;;;;;0.60;0.60;;;1.90;99.90;;;;;;5116220;28;20561;-74
2024/03/01 05:33:30;;;;;;;0.73;0.73;;;1.90;99.90;;;;;;5097730;28;20223;-72
2024/03/01 05:35:55;;;;;;;0.60;0.60;;;1.80;99.90;;;;;;5097836;28;20226;-73
2024/03/01 05:38:21;;;;;;;1.05;1.05;;;1.80;99.90;;;;;;5115805;28;20199;-74
2024/03/01 05:40:47;;;;;;;0.70;0.70;;;1.80;99.90;;;;;;5097656;28;20202;-74
2024/03/01 05:43:13;;;;;;;0.80;0.80;;;1.80;99.90;;;;;;5115916;28;20287;-74
2024/03/01 05:46:21;;;;;;;0.70;0.70;;;1.70;99.90;;;;;;5115935;28;20617;-71
2024/03/01 05:49:10;;;;;;;0.77;0.77;;;1.70;99.90;;;;;;5014056;28;20206;-70
2024/03/01 05:51:37;;;;;;;0.68;0.68;;;1.70;99.90;;;;;;5013214;28;20226;-70
2024/03/01 05:54:26;;;;;;;0.95;0.95;;;1.70;99.90;;;;;;5067859;28;20204;-71
2024/03/01 05:56:51;;;;;;;0.60;0.60;;;1.70;99.90;;;;;;5085019;28;20228;-69
2024/03/01 05:59:17;;;;;;;1.35;1.25;;;1.70;99.90;;;;;;5095194;28;20307;-69
2024/03/01 06:16:28;;;;;;;0.80;0.80;;;1.70;99.90;;;;;;4805176;29;20225;-70
2024/03/01 06:23:36;;;;;;;0.70;0.70;;;1.80;99.90;;;;;;4762644;30;20207;-69
2024/03/01 06:26:40;;;;;;;;;;;;;;;;;;;;;
2024/03/01 06:33:42;;;;;;;0.80;0.80;;;1.90;99.90;;;;;;4694279;30;20223;-71
2024/03/01 06:36:17;;;;;;;1.05;1.00;;;1.90;99.90;;;;;;4679338;30;20767;-71
2024/03/01 06:38:51;;;;;;;0.80;0.77;;;2.00;99.90;;;;;;4674887;30;20257;-71
2024/03/01 06:45:19;;;;;;;0.68;0.68;;;2.00;99.90;;;;;;4770974;29;20218;-72
2024/03/01 06:49:13;;;;;;;;;;;;;;;;;;;;;
2024/03/01 06:51:43;;;;;;;0.60;0.60;;;2.00;99.90;;;;;;4807810;29;20214;-71
2024/03/01 06:57:48;;;;;;;0.60;0.60;;;2.10;99.90;;;;;;4839159;29;20732;-75
2024/03/01 07:00:14;;;;;;;1.17;1.13;;;2.10;99.90;;;;;;4841324;29;20217;-75
2024/03/01 07:02:40;;;;;;;0.70;0.70;;;2.10;99.90;;;;;;4832664;29;20224;-72
2024/03/01 07:05:06;;;;;;;1.45;1.02;;;2.20;99.90;;;;;;4860506;29;20573;-72
2024/03/01 07:07:32;;;;;;;0.88;0.88;;;2.20;99.90;;;;;;4866831;29;20313;-73
2024/03/01 07:10:54;;;;;;;1.00;1.00;;;2.20;99.90;;;;;;4915824;29;20300;-74
2024/03/01 07:13:20;;;;;;;1.33;1.17;;;2.20;99.90;;;;;;4860317;29;20585;-73
2024/03/01 07:15:46;;;;;;;0.68;0.68;;;2.30;99.90;;;;;;4859273;29;20213;-73
2024/03/01 07:18:11;;;;;;;0.60;0.60;;;2.30;99.90;;;;;;4859214;29;20224;-73
2024/03/01 07:20:37;;;;;;;2.05;1.38;;;2.30;99.90;;;;;;4867472;29;20237;-73
2024/03/01 07:23:03;;;;;;;4.97;2.70;;;2.40;99.90;;;;;;4896552;29;20210;-72
2024/03/01 07:25:29;;;;;;;0.70;0.65;;;2.40;99.90;;;;;;4992021;28;20226;-73
2024/03/01 07:27:55;;;;;;;0.70;0.70;;;2.40;99.90;;;;;;4992214;28;20698;-73
2024/03/01 07:30:21;;;;;;;0.80;0.80;;;2.40;99.90;;;;;;4991992;28;20207;-72
2024/03/01 07:32:46;;;;;;;0.57;0.57;;;2.50;99.90;;;;;;4992120;28;20211;-73
2024/03/01 07:35:12;;;;;;;0.60;0.60;;;2.50;99.90;;;;;;4992051;28;20602;-73
2024/03/01 07:37:39;;;;;;;0.70;0.70;;;2.60;99.90;;;;;;4991772;28;20680;-73
2024/03/01 07:40:08;;;;;;;0.80;0.80;;;2.60;99.90;;;;;;4992215;28;20716;-73
2024/03/01 07:42:34;;;;;;;1.20;1.13;;;2.60;99.90;;;;;;4993843;28;20203;-73
2024/03/01 07:44:59;;;;;;;1.13;1.10;;;2.70;99.90;;;;;;4995120;28;20580;-72
2024/03/01 07:47:26;;;;;;;1.17;1.08;;;2.70;99.90;;;;;;5028431;28;20615;-73
2024/03/01 07:49:52;;;;;;;0.77;0.77;;;2.70;99.90;;;;;;5038374;28;20212;-74
2024/03/01 07:53:10;;;;;;;0.70;0.70;;;2.80;99.90;;;;;;5053910;28;20232;-74
2024/03/01 07:55:36;;;;;;;0.65;0.65;;;2.80;99.90;;;;;;5055094;28;20280;-73
2024/03/01 07:58:02;;;;;;;0.70;0.70;;;2.80;99.90;;;;;;5090505;28;20261;-73
2024/03/01 08:01:03;;;;;;;0.95;0.95;;;2.80;99.90;;;;;;5096523;28;20196;-74
2024/03/01 08:04:21;;;;;;;0.93;0.93;;;2.80;99.90;;;;;;5110889;28;20199;-74
2024/03/01 08:13:31;;;;;;;0.57;0.57;;;2.80;99.90;;;;;;4995485;28;20277;-75
2024/03/01 08:15:57;;;;;;;0.52;0.52;;;2.80;99.90;;;;;;5033741;28;20201;-73
2024/03/01 08:19:13;;;;;;;0.80;0.80;;;2.90;99.90;;;;;;5050233;28;20205;-75
2024/03/01 08:21:39;;;;;;;0.73;0.73;;;2.90;99.90;;;;;;5027159;28;20225;-74
2024/03/01 08:24:32;;;;;;;2.05;1.92;;;3.00;99.90;;;;;;5050799;28;20205;-75
2024/03/01 08:26:58;;;;;;;5.18;1.75;;;3.10;99.90;;;;;;5049607;28;20205;-75
2024/03/01 08:29:23;;;;;;;0.52;0.52;;;3.10;99.90;;;;;;5050178;28;20236;-75
2024/03/01 08:31:49;;;;;;;0.80;0.80;;;3.20;99.90;;;;;;5050450;28;20240;-75
2024/03/01 08:37:26;;;;;;;0.70;0.70;;;3.30;99.90;;;;;;5031900;28;20266;-76
2024/03/01 08:39:55;;;;;;;0.63;0.63;;;3.40;99.90;;;;;;5013999;28;20225;-73
2024/03/01 08:42:54;;;;;;;0.70;0.70;;;3.40;99.90;;;;;;5044127;28;20205;-76
2024/03/01 08:45:58;;;;;;;0.60;0.60;;;3.50;99.90;;;;;;5062979;28;20692;-75
2024/03/01 08:49:24;;;;;;;0.77;0.77;;;3.60;99.90;;;;;;4994511;28;20310;-75
2024/03/01 08:52:30;;;;;;;0.80;0.80;;;3.60;99.90;;;;;;4987509;28;20249;-74
2024/03/01 08:55:00;;;;;;;0.60;0.60;;;3.70;99.90;;;;;;4994521;28;20205;-75
2024/03/01 08:57:30;;;;;;;0.80;0.80;;;3.80;99.90;;;;;;4991063;28;20274;-75
2024/03/01 08:59:55;;;;;;;0.70;0.70;;;3.80;99.90;;;;;;4991480;28;20707;-75
2024/03/01 09:02:30;;;;;;;0.52;0.52;;;3.80;99.90;;;;;;4991136;28;20231;-75
2024/03/01 09:04:55;;;;;;;0.70;0.70;;;3.90;99.90;;;;;;4994984;28;20271;-75
2024/03/01 09:07:49;;;;;;;0.80;0.80;;;3.90;99.90;;;;;;4994935;28;20737;-74
2024/03/01 09:10:42;;;;;;;0.70;0.70;;;4.00;99.90;;;;;;4994819;28;20762;-75
2024/03/01 09:13:46;;;;;;;0.90;0.90;;;4.10;99.90;;;;;;4994302;28;20742;-75
2024/03/01 09:20:05;;;;;;;1.60;1.50;;;4.10;99.90;;;;;;4806510;29;20225;-70
2024/03/01 09:22:32;;;;;;;0.70;0.70;;;4.20;99.90;;;;;;4835372;29;20212;-70
2024/03/01 09:24:58;;;;;;;1.00;1.00;;;4.10;99.90;;;;;;4868472;29;20767;-70
2024/03/01 09:27:34;;;;;;;0.60;0.60;;;4.10;99.90;;;;;;4879453;29;20344;-71
2024/03/01 09:30:08;;;;;;;1.15;1.15;;;4.10;99.90;;;;;;4879629;29;20579;-70
2024/03/01 09:36:57;;;;;;;0.93;0.93;;;4.10;99.90;;;;;;4843884;29;20253;-71
2024/03/01 09:39:23;;;;;;;0.70;0.70;;;4.00;99.90;;;;;;4773331;30;20242;-70
2024/03/01 09:42:28;;;;;;;1.50;1.40;;;4.00;99.90;;;;;;4864182;29;20231;-70
2024/03/01 09:48:36;;;;;;;0.50;0.50;;;4.20;99.90;;;;;;4861422;29;20209;-70
2024/03/01 09:51:30;;;;;;;1.63;1.52;;;4.20;99.90;;;;;;4862238;29;20368;-71
2024/03/01 09:57:12;;;;;;;0.60;0.60;;;4.20;99.90;;;;;;4877497;29;20199;-71
2024/03/01 09:59:56;;;;;;;1.10;1.10;;;4.30;99.90;;;;;;4897540;29;20231;-70
2024/03/01 10:03:15;;;;;;;0.60;0.60;;;4.20;99.90;;;;;;4897682;29;20203;-72
2024/03/01 10:06:02;;;;;;;0.60;0.60;;;4.30;99.90;;;;;;4898485;29;20210;-71
2024/03/01 10:13:11;;;;;;;0.70;0.70;;;4.40;99.90;;;;;;4844068;29;20682;-70
2024/03/01 10:19:39;;;;;;;0.60;0.60;;;4.40;99.90;;;;;;4898925;29;20616;-69
2024/03/01 10:26:05;;;;;;;0.80;0.80;;;4.60;99.90;;;;;;4944480;28;20223;-75
2024/03/01 10:32:45;;;;;;;1.00;1.00;;;4.50;99.90;;;;;;4974025;28;20203;-73
2024/03/01 10:35:19;;;;;;;0.90;0.90;;;4.80;99.90;;;;;;5042480;28;20680;-73
2024/03/01 10:37:56;;;;;;;1.20;1.15;;;5.10;99.90;;;;;;5074171;28;20196;-73
2024/03/01 10:40:23;;;;;;;0.85;0.85;;;5.20;99.90;;;;;;5074066;28;20184;-73
2024/03/01 10:43:18;;;;;;;0.65;0.65;;;5.30;99.90;;;;;;5074274;28;20640;-73
2024/03/01 10:56:53;;;;;;;0.57;0.57;;;6.10;99.90;;;;;;5052505;28;20584;-73
2024/03/01 11:02:50;;;;;;;0.70;0.70;;;6.60;99.90;;;;;;5051802;28;20235;-73
2024/03/01 11:05:32;;;;;;;1.05;1.02;;;6.50;99.90;;;;;;5051532;28;20232;-74
2024/03/01 11:08:09;;;;;;;1.42;1.33;;;6.40;99.90;;;;;;5051103;28;20198;-73
2024/03/01 11:11:12;;;;;;;0.60;0.60;;;6.30;99.90;;;;;;5051622;28;20697;-74
2024/03/01 11:13:41;;;;;;;1.25;0.98;;;5.70;99.90;;;;;;5052212;28;20197;-74
2024/03/01 11:16:15;;;;;;;0.65;0.65;;;5.60;99.90;;;;;;5051885;28;20633;-74
2024/03/01 11:22:28;;;;;;;0.90;0.90;;;5.30;99.90;;;;;;4992714;28;20211;-74
2024/03/01 11:29:09;;;;;;;1.65;0.82;;;4.90;99.90;;;;;;5075499;28;20239;-74
2024/03/01 11:35:37;;;;;;;1.35;1.25;;;4.70;99.90;;;;;;5012166;28;20238;-70
2024/03/01 11:42:07;;;;;;;0.98;0.93;;;4.60;99.90;;;;;;5012065;28;20201;-71
2024/03/01 11:59:17;;;;;;;0.80;0.80;;;4.40;99.90;;;;;;4938997;28;20331;-70
2024/03/01 12:06:30;;;;;;;0.70;0.70;;;4.40;99.90;;;;;;4952603;29;20233;-72
2024/03/01 12:19:58;;;;;;;1.02;1.02;;;4.70;99.90;;;;;;4895515;29;20338;-70
2024/03/01 12:29:52;;;;;;;1.10;1.00;;;4.80;99.90;;;;;;4767614;29;20242;-71
2024/03/01 12:32:58;;;;;;;0.75;0.75;;;4.70;99.90;;;;;;4812463;29;20218;-71
2024/03/01 12:35:48;;;;;;;1.00;1.00;;;4.70;99.90;;;;;;4803674;29;20210;-70
2024/03/01 12:42:10;;;;;;;4.88;2.05;;;4.60;99.90;;;;;;4829225;29;20249;-71
2024/03/01 12:45:27;;;;;;;;;;;;;;;;;;;;;
2024/03/01 12:49:04;;;;;;;0.63;0.63;;;4.60;99.90;;;;;;4882617;29;20222;-75
2024/03/01 12:51:39;;;;;;;0.98;0.98;;;4.60;99.90;;;;;;4894123;29;20227;-75
2024/03/01 12:54:07;;;;;;;0.75;0.75;;;4.50;99.90;;;;;;4936153;28;20211;-75
2024/03/01 12:56:55;;;;;;;0.90;0.90;;;4.50;99.90;;;;;;4975086;28;20735;-75
2024/03/01 12:59:29;;;;;;;0.65;0.65;;;4.50;99.90;;;;;;5037756;28;20597;-75
2024/03/01 13:02:13;;;;;;;0.93;0.93;;;4.50;99.90;;;;;;5076169;28;20200;-75
2024/03/01 13:04:58;;;;;;;0.77;0.77;;;4.50;99.90;;;;;;5075902;28;20303;-75
2024/03/01 13:07:27;;;;;;;2.03;1.23;;;4.50;99.90;;;;;;5057706;28;20196;-75
2024/03/01 13:09:55;;;;;;;1.08;1.00;;;4.50;99.90;;;;;;5075787;28;20557;-73
2024/03/01 13:12:24;;;;;;;0.60;0.60;;;4.50;99.90;;;;;;5075456;28;20280;-75
2024/03/01 13:15:05;;;;;;;0.70;0.70;;;4.50;99.90;;;;;;5077873;28;20193;-75
2024/03/01 13:17:40;;;;;;;0.50;0.50;;;4.50;99.90;;;;;;5087157;28;20188;-76
2024/03/01 13:20:17;;;;;;;0.75;0.75;;;4.50;99.90;;;;;;5077763;28;20304;-75
2024/03/01 13:22:48;;;;;;;0.68;0.68;;;4.50;99.90;;;;;;5077605;28;20211;-75
2024/03/01 13:25:54;;;;;;;0.65;0.65;;;4.50;99.90;;;;;;5095977;28;20574;-74
2024/03/01 13:28:29;;;;;;;3.83;1.92;;;4.50;99.90;;;;;;5095676;28;20199;-74
2024/03/01 13:31:07;;;;;;;0.68;0.68;;;4.50;99.90;;;;;;5077699;28;20195;-74
2024/03/01 13:33:48;;;;;;;0.70;0.70;;;4.50;99.90;;;;;;5077450;28;20212;-74
2024/03/01 13:36:23;;;;;;;0.80;0.80;;;4.50;99.90;;;;;;5110567;28;20199;-74
2024/03/01 13:39:05;;;;;;;0.60;0.60;;;4.50;99.90;;;;;;5131908;27;20297;-73
2024/03/01 13:41:36;;;;;;;0.70;0.70;;;4.40;99.90;;;;;;5115752;28;20187;-73
2024/03/01 13:44:27;;;;;;;0.70;0.70;;;4.40;99.90;;;;;;5116329;28;20217;-74
2024/03/01 13:47:03;;;;;;;0.70;0.70;;;4.40;99.90;;;;;;5097549;28;20290;-75
2024/03/01 13:49:41;;;;;;;1.52;1.42;;;4.40;99.90;;;;;;5131410;27;20195;-75
2024/03/01 13:52:11;;;;;;;0.65;0.65;;;4.40;99.90;;;;;;5097407;28;20195;-75
2024/03/01 13:54:37;;;;;;;1.00;1.00;;;4.40;99.90;;;;;;5115605;28;20604;-75
2024/03/01 13:57:06;;;;;;;5.15;1.90;;;4.40;99.90;;;;;;5132035;27;20643;-75
2024/03/01 14:00:02;;;;;;;0.90;0.90;;;4.40;99.90;;;;;;5115285;28;20242;-75
2024/03/01 14:02:28;;;;;;;0.63;0.63;;;4.40;99.90;;;;;;5032175;28;20617;-74
2024/03/01 14:05:00;;;;;;;1.10;1.00;;;4.40;99.90;;;;;;5032815;28;20202;-75
2024/03/01 14:07:26;;;;;;;0.73;0.73;;;4.40;99.90;;;;;;5032515;28;20555;-74
2024/03/01 14:09:52;;;;;;;0.60;0.60;;;4.40;99.90;;;;;;5032418;28;20305;-74
2024/03/01 14:12:19;;;;;;;0.65;0.65;;;4.40;99.90;;;;;;5016057;28;20194;-74
2024/03/01 14:14:46;;;;;;;3.55;1.20;;;4.40;99.90;;;;;;5032645;28;20217;-74
2024/03/01 14:17:11;;;;;;;0.85;0.85;;;4.40;99.90;;;;;;5032543;28;20214;-74
2024/03/01 14:19:41;;;;;;;0.60;0.60;;;4.40;99.90;;;;;;5032333;28;20225;-74
2024/03/01 14:22:08;;;;;;;0.82;0.82;;;4.30;99.90;;;;;;5032419;28;20194;-74
2024/03/01 14:24:34;;;;;;;2.70;1.45;;;4.30;99.90;;;;;;5032343;28;20191;-74
2024/03/01 14:26:59;;;;;;;1.58;1.38;;;4.30;99.90;;;;;;5032343;28;20264;-74
2024/03/01 14:29:27;;;;;;;0.90;0.90;;;4.30;99.90;;;;;;5048617;28;20333;-74
2024/03/01 14:32:21;;;;;;;2.50;2.15;;;4.40;99.90;;;;;;5042282;28;20248;-74
2024/03/01 14:34:47;;;;;;;1.95;1.23;;;4.40;99.90;;;;;;5027976;28;20214;-74
2024/03/01 14:37:27;;;;;;;0.60;0.60;;;4.40;99.90;;;;;;5032148;28;20562;-74
2024/03/01 14:39:54;;;;;;;0.73;0.73;;;4.40;99.90;;;;;;5073450;28;20242;-74
2024/03/01 14:42:23;;;;;;;0.50;0.50;;;4.40;99.90;;;;;;5114643;28;20195;-74
2024/03/01 14:44:56;;;;;;;0.60;0.60;;;4.40;99.90;;;;;;5114885;28;20203;-74
2024/03/01 14:47:27;;;;;;;0.85;0.85;;;4.40;99.90;;;;;;5096366;28;20198;-75
2024/03/01 14:49:56;;;;;;;1.00;0.93;;;4.40;99.90;;;;;;5114806;28;20593;-74
2024/03/01 14:52:21;;;;;;;0.63;0.63;;;4.40;99.90;;;;;;5114577;28;20275;-74
2024/03/01 14:54:47;;;;;;;0.70;0.70;;;4.40;99.90;;;;;;5114533;28;20223;-74
2024/03/01 14:57:16;;;;;;;0.60;0.60;;;4.40;99.90;;;;;;5114581;28;20195;-74
2024/03/01 14:59:43;;;;;;;0.70;0.70;;;4.30;99.90;;;;;;5092454;28;20234;-74
2024/03/01 15:02:09;;;;;;;0.60;0.60;;;4.30;99.90;;;;;;5093455;28;20193;-74
2024/03/01 15:05:20;;;;;;;1.95;1.35;;;4.40;99.90;;;;;;5093882;28;20195;-74
2024/03/01 15:07:46;;;;;;;0.70;0.70;;;4.30;99.90;;;;;;5015076;28;20198;-75
2024/03/01 15:10:22;;;;;;;0.60;0.60;;;4.30;99.90;;;;;;5081423;28;20204;-74
2024/03/01 15:13:07;;;;;;;0.70;0.70;;;4.30;99.90;;;;;;5089064;28;20204;-74
2024/03/01 15:15:54;;;;;;;;;;;;;;;;;;;;;
2024/03/01 15:18:20;;;;;;;0.88;0.88;;;4.30;99.90;;;;;;5069872;28;20221;-75
2024/03/01 15:21:05;;;;;;;0.70;0.70;;;4.20;99.90;;;;;;5082386;28;20274;-74
2024/03/01 15:23:39;;;;;;;0.88;0.88;;;4.20;99.90;;;;;;5093547;28;20192;-75
2024/03/01 15:26:06;;;;;;;0.60;0.60;;;4.20;99.90;;;;;;5075425;28;20188;-75
2024/03/01 15:28:36;;;;;;;0.60;0.60;;;4.20;99.90;;;;;;5093743;28;20287;-74
2024/03/01 15:31:03;;;;;;;0.75;0.75;;;4.30;99.90;;;;;;5094146;28;20743;-74
2024/03/01 15:33:38;;;;;;;1.48;1.25;;;4.30;99.90;;;;;;5093391;28;20192;-75
2024/03/01 15:36:04;;;;;;;0.70;0.70;;;4.30;99.90;;;;;;5093457;28;20198;-74
2024/03/01 15:38:30;;;;;;;0.60;0.60;;;4.40;99.90;;;;;;5074928;28;20204;-75
2024/03/01 15:40:56;;;;;;;0.57;0.57;;;4.40;99.90;;;;;;5093328;28;20663;-75
2024/03/01 15:43:22;;;;;;;1.48;1.38;;;4.40;99.90;;;;;;5074695;28;20231;-75
2024/03/01 15:45:48;;;;;;;0.73;0.73;;;4.40;99.90;;;;;;5075032;28;20274;-75
2024/03/01 15:48:14;;;;;;;0.60;0.60;;;4.40;99.90;;;;;;5093626;28;20237;-75
2024/03/01 15:50:40;;;;;;;2.58;2.25;;;4.40;99.90;;;;;;5093286;28;20195;-75
2024/03/01 15:53:47;;;;;;;1.15;1.15;;;4.50;99.90;;;;;;5093493;28;20668;-75
2024/03/01 16:00:18;;;;;;;0.60;0.60;;;4.60;99.90;;;;;;5023238;28;20283;-75